sensor_id;sensor_type;location;lat;lon;timestamp;P1;durP1;ratioP1;P2;durP2;ratioP2
55186;SDS011;55457;52.002;5.464;2022-07-01T00:01:42;3.00;;;1.77;;
55186;SDS011;55457;52.002;5.464;2022-07-01T00:04:08;7.97;;;3.35;;
55186;SDS011;55457;52.002;5.464;2022-07-01T00:06:34;7.22;;;2.63;;
55186;SDS011;55457;52.002;5.464;2022-07-01T00:09:01;5.60;;;2.28;;
55186;SDS011;55457;52.002;5.464;2022-07-01T00:11:26;4.35;;;1.63;;
55186;SDS011;55457;52.002;5.464;2022-07-01T00:13:51;5.65;;;2.17;;
55186;SDS011;55457;52.002;5.464;2022-07-01T00:16:16;4.47;;;1.95;;
55186;SDS011;55457;52.002;5.464;2022-07-01T00:18:42;5.15;;;1.88;;
55186;SDS011;55457;52.002;5.464;2022-07-01T00:21:07;3.53;;;1.63;;
55186;SDS011;55457;52.002;5.464;2022-07-01T00:23:33;5.47;;;2.40;;
55186;SDS011;55457;52.002;5.464;2022-07-01T00:25:58;5.18;;;1.95;;
55186;SDS011;55457;52.002;5.464;2022-07-01T00:28:23;3.65;;;1.98;;
55186;SDS011;55457;52.002;5.464;2022-07-01T00:30:49;2.63;;;1.83;;
55186;SDS011;55457;52.002;5.464;2022-07-01T00:33:14;4.32;;;2.00;;
55186;SDS011;55457;52.002;5.464;2022-07-01T00:35:40;7.07;;;2.38;;
55186;SDS011;55457;52.002;5.464;2022-07-01T00:38:05;5.63;;;2.95;;
55186;SDS011;55457;52.002;5.464;2022-07-01T00:40:31;3.78;;;2.35;;
55186;SDS011;55457;52.002;5.464;2022-07-01T00:42:56;4.10;;;2.47;;
55186;SDS011;55457;52.002;5.464;2022-07-01T00:45:21;6.30;;;3.30;;
55186;SDS011;55457;52.002;5.464;2022-07-01T00:47:47;6.45;;;2.10;;
55186;SDS011;55457;52.002;5.464;2022-07-01T00:50:13;4.55;;;2.10;;
55186;SDS011;55457;52.002;5.464;2022-07-01T00:52:40;6.60;;;2.28;;
55186;SDS011;55457;52.002;5.464;2022-07-01T00:55:07;6.45;;;2.80;;
55186;SDS011;55457;52.002;5.464;2022-07-01T00:57:35;4.85;;;2.60;;
55186;SDS011;55457;52.002;5.464;2022-07-01T01:00:06;6.10;;;2.80;;
55186;SDS011;55457;52.002;5.464;2022-07-01T01:02:34;8.32;;;2.05;;
55186;SDS011;55457;52.002;5.464;2022-07-01T01:04:59;5.55;;;2.65;;
55186;SDS011;55457;52.002;5.464;2022-07-01T01:07:25;4.40;;;2.70;;
55186;SDS011;55457;52.002;5.464;2022-07-01T01:09:51;4.15;;;2.35;;
55186;SDS011;55457;52.002;5.464;2022-07-01T01:12:17;5.88;;;2.80;;
55186;SDS011;55457;52.002;5.464;2022-07-01T01:14:46;6.05;;;3.28;;
55186;SDS011;55457;52.002;5.464;2022-07-01T01:17:13;5.38;;;3.10;;
55186;SDS011;55457;52.002;5.464;2022-07-01T01:19:39;5.70;;;2.60;;
55186;SDS011;55457;52.002;5.464;2022-07-01T01:22:05;6.05;;;2.80;;
55186;SDS011;55457;52.002;5.464;2022-07-01T01:24:31;5.97;;;3.03;;
55186;SDS011;55457;52.002;5.464;2022-07-01T01:26:56;5.47;;;2.63;;
55186;SDS011;55457;52.002;5.464;2022-07-01T01:29:22;6.00;;;2.58;;
55186;SDS011;55457;52.002;5.464;2022-07-01T01:31:47;5.82;;;3.28;;
55186;SDS011;55457;52.002;5.464;2022-07-01T01:34:12;9.25;;;3.38;;
55186;SDS011;55457;52.002;5.464;2022-07-01T01:36:38;5.07;;;3.22;;
55186;SDS011;55457;52.002;5.464;2022-07-01T01:39:03;7.13;;;2.58;;
55186;SDS011;55457;52.002;5.464;2022-07-01T01:41:31;8.73;;;3.58;;
55186;SDS011;55457;52.002;5.464;2022-07-01T01:43:57;7.40;;;3.47;;
55186;SDS011;55457;52.002;5.464;2022-07-01T01:46:22;5.45;;;3.03;;
55186;SDS011;55457;52.002;5.464;2022-07-01T01:48:47;6.85;;;3.85;;
55186;SDS011;55457;52.002;5.464;2022-07-01T01:51:13;6.07;;;3.47;;
55186;SDS011;55457;52.002;5.464;2022-07-01T01:53:38;7.82;;;4.03;;
55186;SDS011;55457;52.002;5.464;2022-07-01T01:56:03;6.78;;;3.10;;
55186;SDS011;55457;52.002;5.464;2022-07-01T01:58:29;7.57;;;4.05;;
55186;SDS011;55457;52.002;5.464;2022-07-01T02:00:55;5.90;;;3.42;;
55186;SDS011;55457;52.002;5.464;2022-07-01T02:03:20;10.02;;;4.30;;
55186;SDS011;55457;52.002;5.464;2022-07-01T02:05:46;6.05;;;3.38;;
55186;SDS011;55457;52.002;5.464;2022-07-01T02:08:11;5.15;;;3.35;;
55186;SDS011;55457;52.002;5.464;2022-07-01T02:10:36;10.07;;;4.05;;
55186;SDS011;55457;52.002;5.464;2022-07-01T02:13:02;7.50;;;3.85;;
55186;SDS011;55457;52.002;5.464;2022-07-01T02:15:27;4.68;;;4.07;;
55186;SDS011;55457;52.002;5.464;2022-07-01T02:17:52;9.13;;;4.57;;
55186;SDS011;55457;52.002;5.464;2022-07-01T02:20:21;5.68;;;3.65;;
55186;SDS011;55457;52.002;5.464;2022-07-01T02:22:46;7.47;;;3.72;;
55186;SDS011;55457;52.002;5.464;2022-07-01T02:25:12;7.75;;;3.92;;
55186;SDS011;55457;52.002;5.464;2022-07-01T02:27:37;8.70;;;4.25;;
55186;SDS011;55457;52.002;5.464;2022-07-01T02:30:03;4.60;;;3.15;;
55186;SDS011;55457;52.002;5.464;2022-07-01T02:32:32;6.35;;;4.30;;
55186;SDS011;55457;52.002;5.464;2022-07-01T02:34:58;9.63;;;4.20;;
55186;SDS011;55457;52.002;5.464;2022-07-01T02:37:23;7.75;;;4.45;;
55186;SDS011;55457;52.002;5.464;2022-07-01T02:39:48;8.43;;;4.40;;
55186;SDS011;55457;52.002;5.464;2022-07-01T02:42:13;5.50;;;3.88;;
55186;SDS011;55457;52.002;5.464;2022-07-01T02:44:48;6.75;;;4.38;;
55186;SDS011;55457;52.002;5.464;2022-07-01T02:47:13;8.40;;;3.92;;
55186;SDS011;55457;52.002;5.464;2022-07-01T02:49:39;7.30;;;4.43;;
55186;SDS011;55457;52.002;5.464;2022-07-01T02:52:04;13.52;;;4.97;;
55186;SDS011;55457;52.002;5.464;2022-07-01T02:54:30;8.60;;;5.03;;
55186;SDS011;55457;52.002;5.464;2022-07-01T02:56:55;7.82;;;4.55;;
55186;SDS011;55457;52.002;5.464;2022-07-01T02:59:21;10.98;;;5.15;;
55186;SDS011;55457;52.002;5.464;2022-07-01T03:01:46;8.77;;;5.45;;
55186;SDS011;55457;52.002;5.464;2022-07-01T03:04:11;8.43;;;4.78;;
55186;SDS011;55457;52.002;5.464;2022-07-01T03:06:37;7.03;;;5.80;;
55186;SDS011;55457;52.002;5.464;2022-07-01T03:09:03;8.43;;;4.47;;
55186;SDS011;55457;52.002;5.464;2022-07-01T03:11:28;9.23;;;4.82;;
55186;SDS011;55457;52.002;5.464;2022-07-01T03:13:54;6.90;;;5.05;;
55186;SDS011;55457;52.002;5.464;2022-07-01T03:16:19;7.80;;;5.28;;
55186;SDS011;55457;52.002;5.464;2022-07-01T03:18:44;9.90;;;5.50;;
55186;SDS011;55457;52.002;5.464;2022-07-01T03:21:10;8.63;;;4.97;;
55186;SDS011;55457;52.002;5.464;2022-07-01T03:23:35;8.80;;;5.35;;
55186;SDS011;55457;52.002;5.464;2022-07-01T03:26:00;8.15;;;5.50;;
55186;SDS011;55457;52.002;5.464;2022-07-01T03:28:26;9.13;;;4.97;;
55186;SDS011;55457;52.002;5.464;2022-07-01T03:30:51;9.82;;;6.18;;
55186;SDS011;55457;52.002;5.464;2022-07-01T03:33:16;8.15;;;5.43;;
55186;SDS011;55457;52.002;5.464;2022-07-01T03:35:42;12.25;;;5.70;;
55186;SDS011;55457;52.002;5.464;2022-07-01T03:38:10;7.50;;;5.32;;
55186;SDS011;55457;52.002;5.464;2022-07-01T03:40:36;9.23;;;5.68;;
55186;SDS011;55457;52.002;5.464;2022-07-01T03:43:02;13.50;;;5.80;;
55186;SDS011;55457;52.002;5.464;2022-07-01T03:45:28;7.22;;;4.78;;
55186;SDS011;55457;52.002;5.464;2022-07-01T03:47:54;12.57;;;6.45;;
55186;SDS011;55457;52.002;5.464;2022-07-01T03:50:22;6.82;;;5.72;;
55186;SDS011;55457;52.002;5.464;2022-07-01T03:52:50;8.07;;;5.05;;
55186;SDS011;55457;52.002;5.464;2022-07-01T03:55:36;8.07;;;5.57;;
55186;SDS011;55457;52.002;5.464;2022-07-01T03:58:02;9.90;;;5.00;;
55186;SDS011;55457;52.002;5.464;2022-07-01T04:00:27;9.18;;;6.35;;
55186;SDS011;55457;52.002;5.464;2022-07-01T04:02:53;8.65;;;6.15;;
55186;SDS011;55457;52.002;5.464;2022-07-01T04:05:18;10.23;;;5.32;;
55186;SDS011;55457;52.002;5.464;2022-07-01T04:07:43;8.40;;;5.75;;
55186;SDS011;55457;52.002;5.464;2022-07-01T04:10:09;8.15;;;6.25;;
55186;SDS011;55457;52.002;5.464;2022-07-01T04:12:34;9.30;;;6.85;;
55186;SDS011;55457;52.002;5.464;2022-07-01T04:15:00;13.13;;;6.28;;
55186;SDS011;55457;52.002;5.464;2022-07-01T04:17:26;10.73;;;7.30;;
55186;SDS011;55457;52.002;5.464;2022-07-01T04:19:52;10.95;;;5.85;;
55186;SDS011;55457;52.002;5.464;2022-07-01T04:22:17;10.32;;;6.13;;
55186;SDS011;55457;52.002;5.464;2022-07-01T04:24:57;8.82;;;6.10;;
55186;SDS011;55457;52.002;5.464;2022-07-01T04:27:23;9.57;;;7.32;;
55186;SDS011;55457;52.002;5.464;2022-07-01T04:29:49;11.00;;;6.45;;
55186;SDS011;55457;52.002;5.464;2022-07-01T04:32:14;10.68;;;7.57;;
55186;SDS011;55457;52.002;5.464;2022-07-01T04:34:39;12.38;;;8.35;;
55186;SDS011;55457;52.002;5.464;2022-07-01T04:37:05;9.85;;;7.72;;
55186;SDS011;55457;52.002;5.464;2022-07-01T04:39:30;13.23;;;7.68;;
55186;SDS011;55457;52.002;5.464;2022-07-01T04:41:55;13.30;;;6.70;;
55186;SDS011;55457;52.002;5.464;2022-07-01T04:44:24;11.60;;;6.75;;
55186;SDS011;55457;52.002;5.464;2022-07-01T04:46:50;11.07;;;7.50;;
55186;SDS011;55457;52.002;5.464;2022-07-01T04:49:15;11.88;;;7.25;;
55186;SDS011;55457;52.002;5.464;2022-07-01T04:51:40;9.10;;;6.32;;
55186;SDS011;55457;52.002;5.464;2022-07-01T04:54:06;12.38;;;7.40;;
55186;SDS011;55457;52.002;5.464;2022-07-01T04:56:32;10.43;;;6.80;;
55186;SDS011;55457;52.002;5.464;2022-07-01T04:58:58;12.30;;;7.18;;
55186;SDS011;55457;52.002;5.464;2022-07-01T05:01:24;12.60;;;7.45;;
55186;SDS011;55457;52.002;5.464;2022-07-01T05:03:49;11.13;;;7.57;;
55186;SDS011;55457;52.002;5.464;2022-07-01T05:06:15;13.30;;;7.70;;
55186;SDS011;55457;52.002;5.464;2022-07-01T05:08:41;13.02;;;7.70;;
55186;SDS011;55457;52.002;5.464;2022-07-01T05:11:06;14.88;;;7.47;;
55186;SDS011;55457;52.002;5.464;2022-07-01T05:13:32;12.05;;;7.63;;
55186;SDS011;55457;52.002;5.464;2022-07-01T05:16:00;11.90;;;7.25;;
55186;SDS011;55457;52.002;5.464;2022-07-01T05:18:26;11.23;;;7.68;;
55186;SDS011;55457;52.002;5.464;2022-07-01T05:21:10;11.23;;;6.78;;
55186;SDS011;55457;52.002;5.464;2022-07-01T05:23:54;12.85;;;7.43;;
55186;SDS011;55457;52.002;5.464;2022-07-01T05:26:19;12.23;;;7.30;;
55186;SDS011;55457;52.002;5.464;2022-07-01T05:28:45;11.93;;;8.02;;
55186;SDS011;55457;52.002;5.464;2022-07-01T05:31:10;11.20;;;7.30;;
55186;SDS011;55457;52.002;5.464;2022-07-01T05:33:36;12.65;;;7.43;;
55186;SDS011;55457;52.002;5.464;2022-07-01T05:36:01;13.73;;;7.95;;
55186;SDS011;55457;52.002;5.464;2022-07-01T05:38:27;10.20;;;8.05;;
55186;SDS011;55457;52.002;5.464;2022-07-01T05:40:52;15.13;;;8.73;;
55186;SDS011;55457;52.002;5.464;2022-07-01T05:43:18;11.93;;;7.43;;
55186;SDS011;55457;52.002;5.464;2022-07-01T05:45:44;13.07;;;7.95;;
55186;SDS011;55457;52.002;5.464;2022-07-01T05:48:09;15.73;;;8.23;;
55186;SDS011;55457;52.002;5.464;2022-07-01T05:50:35;12.52;;;7.88;;
55186;SDS011;55457;52.002;5.464;2022-07-01T05:53:00;11.07;;;7.90;;
55186;SDS011;55457;52.002;5.464;2022-07-01T05:55:26;12.70;;;8.73;;
55186;SDS011;55457;52.002;5.464;2022-07-01T05:57:51;14.82;;;8.57;;
55186;SDS011;55457;52.002;5.464;2022-07-01T06:00:17;11.35;;;7.88;;
55186;SDS011;55457;52.002;5.464;2022-07-01T06:02:43;11.80;;;7.50;;
55186;SDS011;55457;52.002;5.464;2022-07-01T06:05:08;16.50;;;8.75;;
55186;SDS011;55457;52.002;5.464;2022-07-01T06:07:34;11.90;;;7.95;;
55186;SDS011;55457;52.002;5.464;2022-07-01T06:09:59;13.13;;;8.02;;
55186;SDS011;55457;52.002;5.464;2022-07-01T06:12:24;14.60;;;8.60;;
55186;SDS011;55457;52.002;5.464;2022-07-01T06:14:50;17.13;;;8.55;;
55186;SDS011;55457;52.002;5.464;2022-07-01T06:17:15;14.50;;;8.43;;
55186;SDS011;55457;52.002;5.464;2022-07-01T06:19:41;12.77;;;8.50;;
55186;SDS011;55457;52.002;5.464;2022-07-01T06:22:07;14.13;;;7.38;;
55186;SDS011;55457;52.002;5.464;2022-07-01T06:24:33;7.22;;;5.30;;
55186;SDS011;55457;52.002;5.464;2022-07-01T06:26:58;7.40;;;4.75;;
55186;SDS011;55457;52.002;5.464;2022-07-01T06:29:24;6.68;;;4.57;;
55186;SDS011;55457;52.002;5.464;2022-07-01T06:31:52;7.13;;;4.70;;
55186;SDS011;55457;52.002;5.464;2022-07-01T06:34:17;7.40;;;3.38;;
55186;SDS011;55457;52.002;5.464;2022-07-01T06:36:43;7.82;;;3.67;;
55186;SDS011;55457;52.002;5.464;2022-07-01T06:39:08;4.57;;;3.55;;
55186;SDS011;55457;52.002;5.464;2022-07-01T06:41:33;7.22;;;4.00;;
55186;SDS011;55457;52.002;5.464;2022-07-01T06:43:59;5.63;;;3.35;;
55186;SDS011;55457;52.002;5.464;2022-07-01T06:46:26;5.45;;;2.85;;
55186;SDS011;55457;52.002;5.464;2022-07-01T06:48:52;5.57;;;2.47;;
55186;SDS011;55457;52.002;5.464;2022-07-01T06:51:17;4.82;;;2.70;;
55186;SDS011;55457;52.002;5.464;2022-07-01T06:53:43;3.45;;;2.20;;
55186;SDS011;55457;52.002;5.464;2022-07-01T06:56:11;7.10;;;2.60;;
55186;SDS011;55457;52.002;5.464;2022-07-01T06:58:38;5.03;;;1.85;;
55186;SDS011;55457;52.002;5.464;2022-07-01T07:01:03;5.20;;;2.38;;
55186;SDS011;55457;52.002;5.464;2022-07-01T07:03:29;3.90;;;2.15;;
55186;SDS011;55457;52.002;5.464;2022-07-01T07:05:57;4.53;;;1.83;;
55186;SDS011;55457;52.002;5.464;2022-07-01T07:08:25;4.30;;;1.80;;
55186;SDS011;55457;52.002;5.464;2022-07-01T07:10:51;5.47;;;2.10;;
55186;SDS011;55457;52.002;5.464;2022-07-01T07:13:17;5.03;;;1.88;;
55186;SDS011;55457;52.002;5.464;2022-07-01T07:15:42;5.68;;;2.00;;
55186;SDS011;55457;52.002;5.464;2022-07-01T07:18:08;5.65;;;1.98;;
55186;SDS011;55457;52.002;5.464;2022-07-01T07:20:33;10.63;;;1.90;;
55186;SDS011;55457;52.002;5.464;2022-07-01T07:22:59;5.25;;;1.83;;
55186;SDS011;55457;52.002;5.464;2022-07-01T07:25:25;4.00;;;1.45;;
55186;SDS011;55457;52.002;5.464;2022-07-01T07:27:50;5.28;;;1.60;;
55186;SDS011;55457;52.002;5.464;2022-07-01T07:30:16;4.60;;;1.67;;
55186;SDS011;55457;52.002;5.464;2022-07-01T07:32:42;4.68;;;1.33;;
55186;SDS011;55457;52.002;5.464;2022-07-01T07:35:08;4.68;;;1.73;;
55186;SDS011;55457;52.002;5.464;2022-07-01T07:37:34;6.20;;;1.38;;
55186;SDS011;55457;52.002;5.464;2022-07-01T07:39:59;6.07;;;1.48;;
55186;SDS011;55457;52.002;5.464;2022-07-01T07:42:25;5.30;;;1.33;;
55186;SDS011;55457;52.002;5.464;2022-07-01T07:44:51;2.17;;;1.20;;
55186;SDS011;55457;52.002;5.464;2022-07-01T07:47:17;5.30;;;1.52;;
55186;SDS011;55457;52.002;5.464;2022-07-01T07:49:42;5.25;;;1.25;;
55186;SDS011;55457;52.002;5.464;2022-07-01T07:52:07;4.70;;;2.00;;
55186;SDS011;55457;52.002;5.464;2022-07-01T07:54:33;4.22;;;1.20;;
55186;SDS011;55457;52.002;5.464;2022-07-01T07:56:58;3.58;;;1.40;;
55186;SDS011;55457;52.002;5.464;2022-07-01T07:59:24;4.30;;;1.60;;
55186;SDS011;55457;52.002;5.464;2022-07-01T08:01:49;3.53;;;1.55;;
55186;SDS011;55457;52.002;5.464;2022-07-01T08:04:14;6.85;;;1.10;;
55186;SDS011;55457;52.002;5.464;2022-07-01T08:06:40;6.88;;;1.42;;
55186;SDS011;55457;52.002;5.464;2022-07-01T08:09:05;5.85;;;1.70;;
55186;SDS011;55457;52.002;5.464;2022-07-01T08:11:31;3.03;;;1.25;;
55186;SDS011;55457;52.002;5.464;2022-07-01T08:13:56;4.70;;;1.25;;
55186;SDS011;55457;52.002;5.464;2022-07-01T08:16:22;2.20;;;0.88;;
55186;SDS011;55457;52.002;5.464;2022-07-01T08:18:47;5.35;;;1.38;;
55186;SDS011;55457;52.002;5.464;2022-07-01T08:21:13;2.00;;;0.88;;
55186;SDS011;55457;52.002;5.464;2022-07-01T08:23:38;2.85;;;1.10;;
55186;SDS011;55457;52.002;5.464;2022-07-01T08:26:03;4.13;;;1.05;;
55186;SDS011;55457;52.002;5.464;2022-07-01T08:28:28;3.25;;;1.38;;
55186;SDS011;55457;52.002;5.464;2022-07-01T08:30:54;3.45;;;0.88;;
55186;SDS011;55457;52.002;5.464;2022-07-01T08:33:20;5.45;;;2.00;;
55186;SDS011;55457;52.002;5.464;2022-07-01T08:35:45;3.15;;;1.38;;
55186;SDS011;55457;52.002;5.464;2022-07-01T08:38:10;6.55;;;1.30;;
55186;SDS011;55457;52.002;5.464;2022-07-01T08:40:36;7.18;;;1.27;;
55186;SDS011;55457;52.002;5.464;2022-07-01T08:43:03;5.15;;;1.40;;
55186;SDS011;55457;52.002;5.464;2022-07-01T08:45:31;4.72;;;1.38;;
55186;SDS011;55457;52.002;5.464;2022-07-01T08:47:58;3.97;;;1.33;;
55186;SDS011;55457;52.002;5.464;2022-07-01T08:50:28;5.13;;;1.00;;
55186;SDS011;55457;52.002;5.464;2022-07-01T08:52:55;3.22;;;0.88;;
55186;SDS011;55457;52.002;5.464;2022-07-01T08:55:21;3.92;;;1.42;;
55186;SDS011;55457;52.002;5.464;2022-07-01T08:57:47;4.97;;;2.45;;
55186;SDS011;55457;52.002;5.464;2022-07-01T09:00:12;2.25;;;1.20;;
55186;SDS011;55457;52.002;5.464;2022-07-01T09:02:51;4.05;;;1.20;;
55186;SDS011;55457;52.002;5.464;2022-07-01T09:05:28;3.42;;;1.17;;
55186;SDS011;55457;52.002;5.464;2022-07-01T09:07:55;2.78;;;1.33;;
55186;SDS011;55457;52.002;5.464;2022-07-01T09:10:22;2.60;;;1.63;;
55186;SDS011;55457;52.002;5.464;2022-07-01T09:12:48;6.30;;;2.03;;
55186;SDS011;55457;52.002;5.464;2022-07-01T09:15:23;4.45;;;1.38;;
55186;SDS011;55457;52.002;5.464;2022-07-01T09:18:16;3.35;;;1.05;;
55186;SDS011;55457;52.002;5.464;2022-07-01T09:20:43;2.92;;;1.50;;
55186;SDS011;55457;52.002;5.464;2022-07-01T09:23:11;5.63;;;1.55;;
55186;SDS011;55457;52.002;5.464;2022-07-01T09:25:48;2.53;;;1.15;;
55186;SDS011;55457;52.002;5.464;2022-07-01T09:28:19;3.63;;;1.60;;
55186;SDS011;55457;52.002;5.464;2022-07-01T09:30:50;5.40;;;1.17;;
55186;SDS011;55457;52.002;5.464;2022-07-01T09:33:17;4.05;;;1.67;;
55186;SDS011;55457;52.002;5.464;2022-07-01T09:35:45;2.35;;;0.90;;
55186;SDS011;55457;52.002;5.464;2022-07-01T09:38:12;1.83;;;1.13;;
55186;SDS011;55457;52.002;5.464;2022-07-01T09:43:14;3.90;;;1.33;;
55186;SDS011;55457;52.002;5.464;2022-07-01T09:45:54;4.18;;;1.38;;
55186;SDS011;55457;52.002;5.464;2022-07-01T09:48:22;3.85;;;0.88;;
55186;SDS011;55457;52.002;5.464;2022-07-01T09:50:50;4.95;;;1.00;;
55186;SDS011;55457;52.002;5.464;2022-07-01T09:53:16;3.78;;;1.10;;
55186;SDS011;55457;52.002;5.464;2022-07-01T09:55:42;3.30;;;0.80;;
55186;SDS011;55457;52.002;5.464;2022-07-01T09:58:07;1.77;;;1.00;;
55186;SDS011;55457;52.002;5.464;2022-07-01T10:00:34;3.78;;;1.42;;
55186;SDS011;55457;52.002;5.464;2022-07-01T10:03:02;3.80;;;1.10;;
55186;SDS011;55457;52.002;5.464;2022-07-01T10:05:28;4.13;;;1.58;;
55186;SDS011;55457;52.002;5.464;2022-07-01T10:13:17;2.78;;;1.30;;
55186;SDS011;55457;52.002;5.464;2022-07-01T10:15:48;1.58;;;1.10;;
55186;SDS011;55457;52.002;5.464;2022-07-01T10:18:21;1.23;;;0.90;;
55186;SDS011;55457;52.002;5.464;2022-07-01T10:20:48;4.13;;;1.42;;
55186;SDS011;55457;52.002;5.464;2022-07-01T10:23:13;4.07;;;1.42;;
55186;SDS011;55457;52.002;5.464;2022-07-01T10:25:40;5.50;;;1.20;;
55186;SDS011;55457;52.002;5.464;2022-07-01T10:30:56;2.65;;;1.67;;
55186;SDS011;55457;52.002;5.464;2022-07-01T10:39:07;2.50;;;0.82;;
55186;SDS011;55457;52.002;5.464;2022-07-01T10:44:05;1.48;;;0.40;;
55186;SDS011;55457;52.002;5.464;2022-07-01T10:49:09;3.97;;;0.82;;
55186;SDS011;55457;52.002;5.464;2022-07-01T10:51:55;3.22;;;0.40;;
55186;SDS011;55457;52.002;5.464;2022-07-01T10:59:45;1.40;;;0.55;;
55186;SDS011;55457;52.002;5.464;2022-07-01T11:02:16;2.00;;;0.40;;
55186;SDS011;55457;52.002;5.464;2022-07-01T11:04:45;1.55;;;0.50;;
55186;SDS011;55457;52.002;5.464;2022-07-01T11:07:11;2.30;;;0.52;;
55186;SDS011;55457;52.002;5.464;2022-07-01T11:09:37;2.05;;;0.52;;
55186;SDS011;55457;52.002;5.464;2022-07-01T11:12:04;3.50;;;0.60;;
55186;SDS011;55457;52.002;5.464;2022-07-01T11:14:33;0.43;;;0.35;;
55186;SDS011;55457;52.002;5.464;2022-07-01T11:17:00;2.55;;;0.40;;
55186;SDS011;55457;52.002;5.464;2022-07-01T11:19:27;3.13;;;0.57;;
55186;SDS011;55457;52.002;5.464;2022-07-01T11:21:52;1.58;;;0.30;;
55186;SDS011;55457;52.002;5.464;2022-07-01T11:24:19;1.63;;;0.40;;
55186;SDS011;55457;52.002;5.464;2022-07-01T11:26:45;1.33;;;0.57;;
55186;SDS011;55457;52.002;5.464;2022-07-01T11:29:11;1.92;;;0.65;;
55186;SDS011;55457;52.002;5.464;2022-07-01T11:31:37;4.85;;;0.70;;
55186;SDS011;55457;52.002;5.464;2022-07-01T11:34:03;1.70;;;0.43;;
55186;SDS011;55457;52.002;5.464;2022-07-01T11:36:29;1.73;;;0.50;;
55186;SDS011;55457;52.002;5.464;2022-07-01T11:39:13;2.13;;;0.60;;
55186;SDS011;55457;52.002;5.464;2022-07-01T11:41:51;2.17;;;0.60;;
55186;SDS011;55457;52.002;5.464;2022-07-01T11:44:27;2.53;;;0.50;;
55186;SDS011;55457;52.002;5.464;2022-07-01T11:49:47;0.30;;;0.30;;
55186;SDS011;55457;52.002;5.464;2022-07-01T11:52:13;3.15;;;0.77;;
55186;SDS011;55457;52.002;5.464;2022-07-01T11:54:40;1.75;;;0.40;;
55186;SDS011;55457;52.002;5.464;2022-07-01T11:59:34;1.08;;;0.60;;
55186;SDS011;55457;52.002;5.464;2022-07-01T12:01:59;2.03;;;0.80;;
55186;SDS011;55457;52.002;5.464;2022-07-01T12:04:25;1.48;;;0.55;;
55186;SDS011;55457;52.002;5.464;2022-07-01T12:06:51;0.95;;;0.50;;
55186;SDS011;55457;52.002;5.464;2022-07-01T12:09:17;1.10;;;0.32;;
55186;SDS011;55457;52.002;5.464;2022-07-01T12:11:47;2.78;;;0.50;;
55186;SDS011;55457;52.002;5.464;2022-07-01T12:14:21;4.47;;;0.60;;
55186;SDS011;55457;52.002;5.464;2022-07-01T12:16:51;0.90;;;0.40;;
55186;SDS011;55457;52.002;5.464;2022-07-01T12:22:08;2.33;;;0.50;;
55186;SDS011;55457;52.002;5.464;2022-07-01T12:24:35;1.67;;;0.43;;
55186;SDS011;55457;52.002;5.464;2022-07-01T12:27:02;1.77;;;0.50;;
55186;SDS011;55457;52.002;5.464;2022-07-01T12:29:31;1.70;;;0.57;;
55186;SDS011;55457;52.002;5.464;2022-07-01T12:32:00;2.67;;;0.73;;
55186;SDS011;55457;52.002;5.464;2022-07-01T12:37:01;1.75;;;0.90;;
55186;SDS011;55457;52.002;5.464;2022-07-01T12:39:27;1.88;;;0.60;;
55186;SDS011;55457;52.002;5.464;2022-07-01T12:41:53;2.95;;;0.90;;
55186;SDS011;55457;52.002;5.464;2022-07-01T12:44:22;2.85;;;0.77;;
55186;SDS011;55457;52.002;5.464;2022-07-01T12:46:48;3.97;;;0.60;;
55186;SDS011;55457;52.002;5.464;2022-07-01T12:49:18;0.73;;;0.38;;
55186;SDS011;55457;52.002;5.464;2022-07-01T12:51:47;1.73;;;0.60;;
55186;SDS011;55457;52.002;5.464;2022-07-01T12:54:29;1.27;;;0.50;;
55186;SDS011;55457;52.002;5.464;2022-07-01T12:56:56;1.55;;;0.65;;
55186;SDS011;55457;52.002;5.464;2022-07-01T12:59:21;2.88;;;0.85;;
55186;SDS011;55457;52.002;5.464;2022-07-01T13:01:47;1.27;;;0.70;;
55186;SDS011;55457;52.002;5.464;2022-07-01T13:04:12;2.15;;;0.63;;
55186;SDS011;55457;52.002;5.464;2022-07-01T13:06:37;3.97;;;0.77;;
55186;SDS011;55457;52.002;5.464;2022-07-01T13:09:03;4.15;;;0.88;;
55186;SDS011;55457;52.002;5.464;2022-07-01T13:11:28;1.15;;;0.43;;
55186;SDS011;55457;52.002;5.464;2022-07-01T13:13:53;1.33;;;0.70;;
55186;SDS011;55457;52.002;5.464;2022-07-01T13:16:19;1.77;;;0.80;;
55186;SDS011;55457;52.002;5.464;2022-07-01T13:18:44;1.73;;;0.90;;
55186;SDS011;55457;52.002;5.464;2022-07-01T13:21:09;1.75;;;0.73;;
55186;SDS011;55457;52.002;5.464;2022-07-01T13:23:35;1.45;;;0.90;;
55186;SDS011;55457;52.002;5.464;2022-07-01T13:26:01;3.00;;;1.25;;
55186;SDS011;55457;52.002;5.464;2022-07-01T13:28:26;1.25;;;0.93;;
55186;SDS011;55457;52.002;5.464;2022-07-01T13:30:51;1.02;;;0.88;;
55186;SDS011;55457;52.002;5.464;2022-07-01T13:33:17;1.60;;;0.90;;
55186;SDS011;55457;52.002;5.464;2022-07-01T13:35:42;4.82;;;1.40;;
55186;SDS011;55457;52.002;5.464;2022-07-01T13:38:07;2.15;;;0.90;;
55186;SDS011;55457;52.002;5.464;2022-07-01T13:40:33;2.42;;;0.95;;
55186;SDS011;55457;52.002;5.464;2022-07-01T13:42:58;1.73;;;0.80;;
55186;SDS011;55457;52.002;5.464;2022-07-01T13:45:24;4.13;;;0.98;;
55186;SDS011;55457;52.002;5.464;2022-07-01T13:47:50;2.28;;;0.80;;
55186;SDS011;55457;52.002;5.464;2022-07-01T13:50:15;1.33;;;0.80;;
55186;SDS011;55457;52.002;5.464;2022-07-01T13:52:44;2.95;;;1.00;;
55186;SDS011;55457;52.002;5.464;2022-07-01T13:55:09;0.98;;;0.93;;
55186;SDS011;55457;52.002;5.464;2022-07-01T13:57:34;2.15;;;1.48;;
55186;SDS011;55457;52.002;5.464;2022-07-01T14:00:00;2.05;;;0.90;;
55186;SDS011;55457;52.002;5.464;2022-07-01T14:02:25;2.67;;;1.33;;
55186;SDS011;55457;52.002;5.464;2022-07-01T14:04:51;2.10;;;0.85;;
55186;SDS011;55457;52.002;5.464;2022-07-01T14:07:16;2.22;;;0.65;;
55186;SDS011;55457;52.002;5.464;2022-07-01T14:09:42;2.70;;;1.13;;
55186;SDS011;55457;52.002;5.464;2022-07-01T14:12:09;3.85;;;1.20;;
55186;SDS011;55457;52.002;5.464;2022-07-01T14:14:35;2.05;;;1.00;;
55186;SDS011;55457;52.002;5.464;2022-07-01T14:17:00;1.38;;;0.85;;
55186;SDS011;55457;52.002;5.464;2022-07-01T14:19:25;2.35;;;1.08;;
55186;SDS011;55457;52.002;5.464;2022-07-01T14:21:52;2.70;;;1.00;;
55186;SDS011;55457;52.002;5.464;2022-07-01T14:24:17;3.15;;;0.98;;
55186;SDS011;55457;52.002;5.464;2022-07-01T14:26:42;3.20;;;1.05;;
55186;SDS011;55457;52.002;5.464;2022-07-01T14:29:08;2.47;;;1.30;;
55186;SDS011;55457;52.002;5.464;2022-07-01T14:31:33;2.92;;;1.15;;
55186;SDS011;55457;52.002;5.464;2022-07-01T14:33:58;3.20;;;1.00;;
55186;SDS011;55457;52.002;5.464;2022-07-01T14:36:23;1.88;;;1.40;;
55186;SDS011;55457;52.002;5.464;2022-07-01T14:38:49;2.63;;;0.85;;
55186;SDS011;55457;52.002;5.464;2022-07-01T14:41:14;3.20;;;1.10;;
55186;SDS011;55457;52.002;5.464;2022-07-01T14:43:40;2.38;;;0.90;;
55186;SDS011;55457;52.002;5.464;2022-07-01T14:46:05;1.98;;;1.00;;
55186;SDS011;55457;52.002;5.464;2022-07-01T14:48:34;1.13;;;0.80;;
55186;SDS011;55457;52.002;5.464;2022-07-01T14:51:03;4.00;;;1.17;;
55186;SDS011;55457;52.002;5.464;2022-07-01T14:53:29;1.73;;;0.98;;
55186;SDS011;55457;52.002;5.464;2022-07-01T14:55:54;0.73;;;0.60;;
55186;SDS011;55457;52.002;5.464;2022-07-01T14:58:20;1.60;;;0.80;;
55186;SDS011;55457;52.002;5.464;2022-07-01T15:00:45;1.92;;;1.05;;
55186;SDS011;55457;52.002;5.464;2022-07-01T15:03:11;1.08;;;0.88;;
55186;SDS011;55457;52.002;5.464;2022-07-01T15:05:36;1.45;;;0.80;;
55186;SDS011;55457;52.002;5.464;2022-07-01T15:08:02;2.10;;;0.98;;
55186;SDS011;55457;52.002;5.464;2022-07-01T15:10:27;2.08;;;1.38;;
55186;SDS011;55457;52.002;5.464;2022-07-01T15:12:53;2.42;;;1.00;;
55186;SDS011;55457;52.002;5.464;2022-07-01T15:15:18;2.00;;;0.93;;
55186;SDS011;55457;52.002;5.464;2022-07-01T15:17:45;3.83;;;1.02;;
55186;SDS011;55457;52.002;5.464;2022-07-01T15:20:12;1.15;;;0.88;;